createdAt,value
2023-04-18T00:02:30.728Z,10.02
2023-04-18T00:05:34.135Z,9.20
2023-04-18T00:08:37.411Z,9.53
2023-04-18T00:11:40.883Z,9.52
2023-04-18T00:14:44.295Z,9.18
2023-04-18T00:17:48.367Z,11.93
2023-04-18T00:20:51.677Z,11.02
2023-04-18T00:23:54.895Z,10.43
2023-04-18T00:26:58.484Z,10.07
2023-04-18T00:30:02.108Z,11.73
2023-04-18T00:33:05.455Z,8.98
2023-04-18T00:36:08.962Z,8.85
2023-04-18T00:39:12.356Z,8.03
2023-04-18T00:42:15.524Z,6.88
2023-04-18T00:45:18.815Z,7.30
2023-04-18T00:48:22.152Z,6.85
2023-04-18T00:51:26.321Z,5.70
2023-04-18T00:54:30.009Z,4.17
2023-04-18T00:57:33.743Z,5.40
2023-04-18T01:00:37.530Z,5.43
2023-04-18T01:03:41.097Z,5.10
2023-04-18T01:06:45.662Z,4.68
2023-04-18T01:09:49.324Z,5.20
2023-04-18T01:13:11.317Z,5.20
2023-04-18T01:16:14.493Z,4.40
2023-04-18T01:19:17.817Z,5.68
2023-04-18T01:22:21.272Z,5.75
2023-04-18T01:25:24.636Z,4.83
2023-04-18T01:28:27.963Z,6.28
2023-04-18T01:31:36.331Z,5.03
2023-04-18T01:34:39.624Z,5.97
2023-04-18T01:37:42.840Z,6.35
2023-04-18T01:40:46.861Z,7.73
2023-04-18T01:43:51.498Z,6.68
2023-04-18T01:46:54.774Z,7.85
2023-04-18T01:49:58.156Z,7.28
2023-04-18T01:53:01.475Z,7.85
2023-04-18T01:56:05.000Z,6.73
2023-04-18T01:59:08.142Z,7.90
2023-04-18T02:02:11.541Z,6.95
2023-04-18T02:05:14.812Z,7.25
2023-04-18T02:08:18.253Z,9.32
2023-04-18T02:11:22.255Z,6.53
2023-04-18T02:14:27.077Z,7.05
2023-04-18T02:17:30.476Z,7.78
2023-04-18T02:20:33.951Z,7.47
2023-04-18T02:23:38.218Z,6.95
2023-04-18T02:26:41.682Z,6.80
2023-04-18T02:29:45.082Z,9.32
2023-04-18T02:32:52.280Z,9.25
2023-04-18T02:35:55.725Z,9.63
2023-04-18T02:38:59.010Z,10.57
2023-04-18T02:42:02.252Z,10.47
2023-04-18T02:45:06.499Z,9.23
2023-04-18T02:48:09.693Z,9.85
2023-04-18T02:51:13.061Z,7.95
2023-04-18T02:54:16.869Z,7.57
2023-04-18T02:57:34.670Z,9.17
2023-04-18T03:00:59.415Z,9.95
2023-04-18T03:04:05.475Z,9.25
2023-04-18T03:07:13.420Z,9.40
2023-04-18T03:10:17.887Z,11.30
2023-04-18T03:13:21.361Z,12.70
2023-04-18T03:16:24.804Z,12.38
2023-04-18T03:19:33.109Z,12.23
2023-04-18T03:22:42.457Z,12.38
2023-04-18T03:25:46.604Z,13.75
2023-04-18T03:28:50.079Z,14.47
2023-04-18T03:31:53.691Z,14.38
2023-04-18T03:34:56.956Z,13.10
2023-04-18T03:38:00.174Z,13.23
2023-04-18T03:41:10.432Z,15.55
2023-04-18T03:44:15.789Z,15.43
2023-04-18T03:47:19.217Z,14.00
2023-04-18T03:50:26.043Z,16.75
2023-04-18T03:53:31.290Z,15.60
2023-04-18T03:56:34.919Z,17.30
2023-04-18T03:59:38.676Z,16.13
2023-04-18T04:02:43.220Z,17.67
2023-04-18T04:05:52.412Z,15.52
2023-04-18T04:08:59.619Z,16.27
2023-04-18T04:12:04.929Z,14.27
2023-04-18T04:15:09.400Z,17.80
2023-04-18T04:18:17.002Z,15.40
2023-04-18T04:21:21.488Z,16.33
2023-04-18T04:24:29.196Z,14.07
2023-04-18T04:27:34.121Z,15.30
2023-04-18T04:30:41.594Z,16.43
2023-04-18T04:33:45.463Z,17.27
2023-04-18T04:36:54.479Z,17.58
2023-04-18T04:40:00.840Z,15.50
2023-04-18T04:43:21.678Z,13.75
2023-04-18T04:46:25.386Z,10.50
2023-04-18T04:49:29.713Z,9.70
2023-04-18T04:52:33.224Z,9.02
2023-04-18T04:55:38.622Z,10.00
2023-04-18T04:58:41.987Z,9.52
2023-04-18T05:02:02.856Z,9.53
2023-04-18T05:05:06.494Z,10.27
2023-04-18T05:08:09.996Z,9.35
2023-04-18T05:11:13.272Z,10.18
2023-04-18T05:14:17.728Z,10.43
2023-04-18T05:17:21.089Z,9.77
2023-04-18T05:20:24.772Z,14.60
2023-04-18T05:23:28.059Z,10.68
2023-04-18T05:26:31.333Z,9.40
2023-04-18T05:29:34.530Z,12.18
2023-04-18T05:32:39.254Z,13.57
2023-04-18T05:35:42.636Z,13.32
2023-04-18T05:38:45.983Z,11.30
2023-04-18T05:41:49.304Z,10.65
2023-04-18T05:44:52.646Z,16.17
2023-04-18T05:47:56.511Z,11.67
2023-04-18T05:50:59.899Z,11.63
2023-04-18T05:54:04.445Z,12.85
2023-04-18T05:57:07.925Z,11.95
2023-04-18T06:00:13.064Z,10.23
2023-04-18T06:03:16.784Z,12.00
2023-04-18T06:06:20.889Z,11.23
2023-04-18T06:09:24.428Z,10.50
2023-04-18T06:12:27.708Z,7.72
2023-04-18T06:15:31.361Z,9.60
2023-04-18T06:18:34.854Z,9.43
2023-04-18T06:21:39.573Z,10.63
2023-04-18T06:24:45.044Z,9.38
2023-04-18T06:27:50.942Z,10.75
2023-04-18T06:30:54.224Z,8.25
2023-04-18T06:33:57.596Z,10.10
2023-04-18T06:37:00.822Z,8.77
2023-04-18T06:40:04.538Z,9.75
2023-04-18T06:43:07.883Z,7.80
2023-04-18T06:46:11.264Z,9.20
2023-04-18T06:49:14.626Z,8.53
2023-04-18T06:52:18.005Z,12.65
2023-04-18T06:55:21.624Z,8.77
2023-04-18T06:58:24.887Z,11.35
2023-04-18T07:01:31.086Z,9.50
2023-04-18T07:04:34.470Z,8.70
2023-04-18T07:07:37.847Z,8.98
2023-04-18T07:10:41.505Z,13.35
2023-04-18T07:13:45.749Z,6.63
2023-04-18T07:16:49.568Z,9.73
2023-04-18T07:19:53.075Z,7.50
2023-04-18T07:22:56.493Z,6.60
2023-04-18T07:26:02.087Z,5.65
2023-04-18T07:29:05.890Z,5.30
2023-04-18T07:32:09.295Z,6.93
2023-04-18T07:35:12.751Z,6.13
2023-04-18T07:38:16.550Z,8.23
2023-04-18T07:41:19.992Z,8.23
2023-04-18T07:44:25.360Z,8.20
2023-04-18T07:47:30.291Z,11.82
2023-04-18T07:50:34.627Z,6.27
2023-04-18T07:53:38.480Z,6.82
2023-04-18T07:56:41.711Z,8.75
2023-04-18T07:59:46.525Z,8.10
2023-04-18T08:02:50.495Z,6.75
2023-04-18T08:05:54.179Z,8.17
2023-04-18T08:08:59.101Z,7.15
2023-04-18T08:12:02.541Z,9.43
2023-04-18T08:15:06.621Z,6.20
2023-04-18T08:18:10.053Z,7.15
2023-04-18T08:21:13.505Z,6.67
2023-04-18T08:24:16.747Z,5.63
2023-04-18T08:27:23.676Z,6.57
2023-04-18T08:30:27.147Z,6.13
2023-04-18T08:33:30.605Z,6.18
2023-04-18T08:36:33.925Z,6.50
2023-04-18T08:39:37.463Z,6.30
2023-04-18T08:42:49.812Z,5.18
2023-04-18T08:45:59.503Z,6.03
2023-04-18T08:49:05.023Z,7.68
2023-04-18T08:52:17.066Z,9.43
2023-04-18T08:55:22.473Z,7.38
2023-04-18T08:58:27.571Z,6.07
2023-04-18T09:02:09.011Z,6.15
2023-04-18T09:05:21.355Z,7.57
2023-04-18T09:08:25.189Z,5.13
2023-04-18T09:11:31.715Z,5.05
2023-04-18T09:14:36.701Z,3.90
2023-04-18T09:17:52.607Z,5.30
2023-04-18T09:20:56.812Z,5.63
2023-04-18T09:24:21.125Z,4.80
2023-04-18T09:27:24.996Z,5.22
2023-04-18T09:30:40.121Z,4.50
2023-04-18T09:33:56.827Z,6.65
2023-04-18T09:37:13.850Z,5.22
2023-04-18T09:40:21.465Z,4.33
2023-04-18T09:43:24.777Z,2.95
2023-04-18T09:46:28.894Z,4.68
2023-04-18T09:49:32.705Z,5.45
2023-04-18T09:52:41.017Z,5.88
2023-04-18T09:55:57.507Z,4.67
2023-04-18T09:59:08.756Z,3.90
2023-04-18T10:02:19.737Z,14.25
2023-04-18T10:05:28.574Z,3.25
2023-04-18T10:08:33.148Z,3.53
2023-04-18T10:11:37.199Z,3.87
2023-04-18T10:14:43.532Z,4.18
2023-04-18T10:21:06.150Z,3.13
2023-04-18T10:24:48.631Z,4.20
2023-04-18T10:28:02.770Z,2.67
2023-04-18T10:31:07.877Z,6.07
2023-04-18T10:34:18.161Z,7.22
2023-04-18T10:37:23.234Z,4.10
2023-04-18T10:40:35.514Z,5.05
2023-04-18T10:44:18.260Z,4.83
2023-04-18T10:47:22.336Z,3.42
2023-04-18T10:50:26.073Z,3.85
2023-04-18T10:53:29.399Z,4.65
2023-04-18T10:56:32.887Z,6.13
2023-04-18T10:59:41.507Z,4.87
2023-04-18T11:03:05.653Z,7.05
2023-04-18T11:06:09.193Z,5.25
2023-04-18T11:09:38.717Z,7.78
2023-04-18T11:12:42.508Z,4.78
2023-04-18T11:15:45.827Z,5.40
2023-04-18T11:18:48.992Z,5.65
2023-04-18T11:22:02.642Z,7.97
2023-04-18T11:25:08.936Z,5.78
2023-04-18T11:28:13.682Z,4.05
2023-04-18T11:31:17.070Z,5.83
2023-04-18T11:34:20.613Z,3.42
2023-04-18T11:37:23.910Z,3.95
2023-04-18T11:40:27.382Z,2.85
2023-04-18T11:43:30.921Z,4.82
2023-04-18T11:46:40.341Z,4.10
2023-04-18T11:49:43.776Z,5.40
2023-04-18T11:52:51.674Z,4.93
2023-04-18T11:55:56.218Z,5.30
2023-04-18T11:58:59.615Z,5.43
2023-04-18T12:02:15.284Z,5.20
2023-04-18T12:05:30.722Z,5.32
2023-04-18T12:08:34.249Z,5.53
2023-04-18T12:11:40.729Z,5.72
2023-04-18T12:14:45.872Z,4.55
2023-04-18T12:17:54.827Z,3.03
2023-04-18T12:21:04.566Z,3.58
2023-04-18T12:24:18.378Z,2.85
2023-04-18T12:27:21.781Z,4.50
2023-04-18T12:30:31.076Z,3.70
2023-04-18T12:33:36.728Z,3.97
2023-04-18T12:36:40.498Z,3.30
2023-04-18T12:39:43.670Z,4.82
2023-04-18T12:42:48.101Z,3.97
2023-04-18T12:45:51.378Z,4.10
2023-04-18T12:48:57.124Z,8.63
2023-04-18T12:52:00.570Z,5.80
2023-04-18T12:55:04.045Z,5.28
2023-04-18T12:58:07.311Z,5.53
2023-04-18T13:01:11.301Z,5.15
2023-04-18T13:04:14.871Z,5.83
2023-04-18T13:07:19.303Z,5.53
2023-04-18T13:10:24.803Z,7.28
2023-04-18T13:13:28.142Z,5.90
2023-04-18T13:16:31.954Z,5.60
2023-04-18T13:19:35.322Z,6.50
2023-04-18T13:22:40.438Z,6.95
2023-04-18T13:25:44.075Z,6.20
2023-04-18T13:28:47.327Z,6.47
2023-04-18T13:31:50.839Z,5.43
2023-04-18T13:34:56.120Z,6.00
2023-04-18T13:37:59.364Z,6.30
2023-04-18T13:41:12.249Z,7.90
2023-04-18T13:44:15.961Z,6.05
2023-04-18T13:47:19.823Z,5.50
2023-04-18T13:50:23.359Z,6.30
2023-04-18T13:53:30.726Z,7.35
2023-04-18T13:56:34.532Z,6.10
2023-04-18T13:59:42.929Z,6.50
2023-04-18T14:02:51.565Z,7.22
2023-04-18T14:05:54.986Z,10.17
2023-04-18T14:08:59.240Z,13.13
2023-04-18T14:12:02.630Z,8.48
2023-04-18T14:15:06.675Z,6.15
2023-04-18T14:18:09.976Z,6.65
2023-04-18T14:21:13.255Z,8.83
2023-04-18T14:24:17.686Z,7.07
2023-04-18T14:27:30.768Z,5.22
2023-04-18T14:30:34.191Z,7.72
2023-04-18T14:33:38.509Z,4.53
2023-04-18T14:36:41.825Z,5.27
2023-04-18T14:39:45.166Z,5.82
2023-04-18T14:42:48.371Z,4.07
2023-04-18T14:45:51.901Z,4.18
2023-04-18T14:48:55.290Z,5.28
2023-04-18T14:51:58.910Z,17.87
2023-04-18T14:55:02.485Z,8.00
2023-04-18T14:58:06.501Z,9.23
2023-04-18T15:01:09.897Z,6.97
2023-04-18T15:04:13.662Z,6.85
2023-04-18T15:07:17.523Z,7.53
2023-04-18T15:10:22.534Z,5.47
2023-04-18T15:13:25.839Z,10.02
2023-04-18T15:16:29.197Z,7.75
2023-04-18T15:19:32.498Z,5.53
2023-04-18T15:22:37.127Z,8.87
2023-04-18T15:25:41.115Z,10.65
2023-04-18T15:28:45.354Z,4.68
2023-04-18T15:31:48.726Z,6.72
2023-04-18T15:34:52.280Z,5.20
2023-04-18T15:37:56.536Z,7.10
2023-04-18T15:40:59.856Z,6.35
2023-04-18T15:44:04.980Z,7.63
2023-04-18T15:47:09.840Z,4.05
2023-04-18T15:50:13.256Z,6.95
2023-04-18T15:53:16.550Z,6.30
2023-04-18T15:56:19.842Z,7.97
2023-04-18T15:59:23.655Z,5.40
2023-04-18T16:02:27.185Z,7.05
2023-04-18T16:05:30.885Z,10.52
2023-04-18T16:08:34.258Z,8.17
2023-04-18T16:11:40.337Z,11.25
2023-04-18T16:14:43.570Z,5.53
2023-04-18T16:17:46.842Z,9.35
2023-04-18T16:20:50.506Z,8.73
2023-04-18T16:23:53.896Z,6.50
2023-04-18T16:26:57.429Z,5.82
2023-04-18T16:30:01.205Z,5.03
2023-04-18T16:33:04.638Z,5.97
2023-04-18T16:36:08.217Z,10.32
2023-04-18T16:39:11.753Z,5.67
2023-04-18T16:42:15.870Z,6.40
2023-04-18T16:45:19.265Z,7.35
2023-04-18T16:48:26.204Z,9.13
2023-04-18T16:51:30.708Z,6.35
2023-04-18T16:54:33.943Z,5.03
2023-04-18T16:57:37.285Z,5.43
2023-04-18T17:00:40.724Z,8.13
2023-04-18T17:03:44.577Z,6.25
2023-04-18T17:06:48.847Z,6.80
2023-04-18T17:09:53.058Z,6.43
2023-04-18T17:12:56.618Z,5.70
2023-04-18T17:15:59.883Z,7.03
2023-04-18T17:19:03.722Z,5.38
2023-04-18T17:22:07.555Z,7.47
2023-04-18T17:25:11.152Z,10.20
2023-04-18T17:28:14.433Z,8.27
2023-04-18T17:31:18.040Z,9.73
2023-04-18T17:34:21.510Z,8.52
2023-04-18T17:37:24.853Z,11.52
2023-04-18T17:40:28.642Z,8.70
2023-04-18T17:43:32.145Z,9.85
2023-04-18T17:46:35.417Z,9.32
2023-04-18T17:49:38.880Z,8.88
2023-04-18T17:52:42.764Z,10.15
2023-04-18T17:55:48.893Z,12.40
2023-04-18T17:58:53.301Z,7.55
2023-04-18T18:01:59.652Z,12.25
2023-04-18T18:05:03.228Z,14.35
2023-04-18T18:08:10.002Z,12.60
2023-04-18T18:11:13.180Z,10.00
2023-04-18T18:14:16.936Z,11.43
2023-04-18T18:17:20.235Z,10.25
2023-04-18T18:20:23.877Z,13.30
2023-04-18T18:23:27.264Z,16.50
2023-04-18T18:26:31.039Z,14.27
2023-04-18T18:29:35.914Z,12.70
2023-04-18T18:32:39.503Z,10.70
2023-04-18T18:35:42.970Z,18.13
2023-04-18T18:38:47.266Z,13.07
2023-04-18T18:41:50.892Z,13.37
2023-04-18T18:44:54.472Z,13.88
2023-04-18T18:47:57.915Z,12.80
2023-04-18T18:51:01.539Z,12.80
2023-04-18T18:54:05.164Z,14.88
2023-04-18T18:57:08.835Z,20.97
2023-04-18T19:00:13.453Z,13.30
2023-04-18T19:03:19.433Z,15.90
2023-04-18T19:06:22.721Z,12.43
2023-04-18T19:09:26.124Z,17.55
2023-04-18T19:12:29.522Z,12.27
2023-04-18T19:15:32.959Z,9.48
2023-04-18T19:18:36.754Z,10.30
2023-04-18T19:21:45.725Z,9.95
2023-04-18T19:24:49.385Z,13.57
2023-04-18T19:27:52.950Z,9.43
2023-04-18T19:30:56.343Z,10.90
2023-04-18T19:33:59.838Z,10.48
2023-04-18T19:37:04.041Z,10.63
2023-04-18T19:40:08.466Z,12.65
2023-04-18T19:43:12.717Z,10.83
2023-04-18T19:46:16.349Z,10.15
2023-04-18T19:49:20.812Z,10.38
2023-04-18T19:52:24.363Z,10.07
2023-04-18T19:55:27.943Z,8.48
2023-04-18T19:58:46.120Z,10.10
2023-04-18T20:01:50.939Z,6.47
2023-04-18T20:04:54.469Z,7.47
2023-04-18T20:07:58.209Z,11.32
2023-04-18T20:11:02.146Z,7.43
2023-04-18T20:14:06.201Z,8.60
2023-04-18T20:17:09.652Z,7.30
2023-04-18T20:20:13.241Z,8.43
2023-04-18T20:23:17.080Z,7.55
2023-04-18T20:26:20.759Z,9.43
2023-04-18T20:29:24.298Z,9.30
2023-04-18T20:32:28.083Z,6.00
2023-04-18T20:35:31.874Z,7.85
2023-04-18T20:38:36.936Z,5.28
2023-04-18T20:41:49.213Z,8.10
2023-04-18T20:44:54.668Z,7.80
2023-04-18T20:47:59.739Z,5.43
2023-04-18T20:51:03.317Z,9.07
2023-04-18T20:54:06.867Z,6.57
2023-04-18T20:57:10.304Z,8.77
2023-04-18T21:00:14.481Z,5.80
2023-04-18T21:03:18.007Z,10.02
2023-04-18T21:06:22.155Z,5.72
2023-04-18T21:09:25.444Z,5.63
2023-04-18T21:12:28.833Z,7.22
2023-04-18T21:15:32.116Z,6.57
2023-04-18T21:18:35.530Z,5.20
2023-04-18T21:21:38.739Z,6.30
2023-04-18T21:24:42.430Z,6.25
2023-04-18T21:27:45.528Z,8.18
2023-04-18T21:30:48.733Z,8.03
2023-04-18T21:33:59.240Z,6.80
2023-04-18T21:37:02.627Z,6.28
2023-04-18T21:40:07.199Z,5.85
2023-04-18T21:43:11.338Z,6.30
2023-04-18T21:46:14.947Z,7.30
2023-04-18T21:49:18.266Z,6.43
2023-04-18T21:52:21.819Z,6.95
2023-04-18T21:55:25.103Z,6.75
2023-04-18T21:58:29.586Z,8.75
2023-04-18T22:01:38.211Z,10.10
2023-04-18T22:04:44.234Z,6.18
2023-04-18T22:07:57.283Z,6.97
2023-04-18T22:11:01.657Z,6.35
2023-04-18T22:14:05.249Z,5.20
2023-04-18T22:17:09.277Z,8.53
2023-04-18T22:20:13.196Z,7.15
2023-04-18T22:23:16.690Z,5.63
2023-04-18T22:26:19.844Z,7.07
2023-04-18T22:29:23.046Z,5.80
2023-04-18T22:32:26.237Z,6.03
2023-04-18T22:35:29.488Z,4.82
2023-04-18T22:38:32.892Z,6.10
2023-04-18T22:41:36.106Z,6.65
2023-04-18T22:44:39.501Z,6.38
2023-04-18T22:47:42.715Z,8.43
2023-04-18T22:50:46.280Z,6.20
2023-04-18T22:53:49.844Z,5.20
2023-04-18T22:56:53.481Z,8.48
2023-04-18T22:59:56.846Z,5.70
2023-04-18T23:03:00.929Z,7.37
2023-04-18T23:06:06.524Z,6.53
2023-04-18T23:09:09.778Z,4.95
2023-04-18T23:12:13.419Z,6.60
2023-04-18T23:15:16.998Z,6.15
2023-04-18T23:18:20.346Z,5.63
2023-04-18T23:21:23.651Z,5.63
2023-04-18T23:24:26.923Z,7.57
2023-04-18T23:27:30.144Z,6.65
2023-04-18T23:30:37.020Z,5.75
2023-04-18T23:33:40.320Z,5.57
2023-04-18T23:36:43.519Z,6.57
2023-04-18T23:39:46.858Z,5.60
2023-04-18T23:42:50.191Z,5.43
2023-04-18T23:45:53.479Z,6.63
2023-04-18T23:48:56.953Z,6.00
2023-04-18T23:52:00.694Z,7.43
2023-04-18T23:55:04.173Z,7.22
2023-04-18T23:58:07.483Z,5.95
